createdAt,value
2018-02-22T00:02:00.915Z,66.80
2018-02-22T00:04:28.394Z,67.20
2018-02-22T00:06:55.853Z,67.00
2018-02-22T00:09:23.459Z,66.80
2018-02-22T00:11:50.903Z,66.60
2018-02-22T00:14:18.364Z,66.50
2018-02-22T00:16:45.812Z,66.40
2018-02-22T00:19:13.260Z,66.50
2018-02-22T00:21:40.711Z,66.10
2018-02-22T00:24:08.156Z,66.20
2018-02-22T00:26:35.600Z,66.40
2018-02-22T00:29:03.053Z,66.50
2018-02-22T00:31:30.596Z,66.20
2018-02-22T00:33:58.035Z,66.30
2018-02-22T00:36:25.471Z,66.30
2018-02-22T00:38:52.910Z,66.40
2018-02-22T00:41:20.358Z,66.40
2018-02-22T00:43:47.791Z,66.30
2018-02-22T00:46:15.238Z,66.00
2018-02-22T00:48:43.444Z,65.10
2018-02-22T00:51:10.884Z,65.10
2018-02-22T00:53:38.332Z,64.70
2018-02-22T00:56:05.772Z,64.60
2018-02-22T00:58:33.203Z,64.60
2018-02-22T01:01:00.644Z,64.50
2018-02-22T01:03:28.084Z,64.10
2018-02-22T01:05:55.537Z,63.90
2018-02-22T01:15:06.111Z,63.40
2018-02-22T01:17:33.556Z,62.50
2018-02-22T01:20:00.985Z,62.30
2018-02-22T01:22:28.426Z,62.00
2018-02-22T01:24:55.861Z,61.70
2018-02-22T01:27:23.312Z,61.60
2018-02-22T01:29:50.765Z,61.00
2018-02-22T01:32:18.220Z,60.90
2018-02-22T01:34:45.664Z,60.80
2018-02-22T01:37:13.877Z,60.50
2018-02-22T01:39:41.311Z,60.50
2018-02-22T01:42:08.768Z,60.00
2018-02-22T01:44:36.200Z,60.00
2018-02-22T01:47:03.644Z,59.90
2018-02-22T01:49:31.092Z,59.80
2018-02-22T01:51:58.532Z,59.60
2018-02-22T01:54:25.966Z,59.50
2018-02-22T01:56:53.411Z,59.40
2018-02-22T01:59:20.962Z,59.30
2018-02-22T02:01:48.394Z,59.50
2018-02-22T02:04:15.828Z,60.00
2018-02-22T02:06:43.271Z,60.00
2018-02-22T02:09:10.745Z,60.00
2018-02-22T02:11:38.180Z,60.00
2018-02-22T02:14:05.609Z,60.10
2018-02-22T02:16:33.066Z,59.70
2018-02-22T02:19:01.269Z,59.60
2018-02-22T02:21:28.715Z,59.40
2018-02-22T02:23:56.166Z,59.30
2018-02-22T02:26:23.608Z,58.80
2018-02-22T02:28:51.044Z,58.60
2018-02-22T02:31:18.489Z,58.30
2018-02-22T02:33:45.920Z,58.20
2018-02-22T02:36:13.368Z,58.30
2018-02-22T02:38:40.820Z,58.10
2018-02-22T02:41:08.281Z,58.40
2018-02-22T02:43:35.739Z,58.60
2018-02-22T02:46:03.171Z,58.40
2018-02-22T02:48:30.625Z,58.20
2018-02-22T02:50:58.829Z,58.10
2018-02-22T02:53:26.290Z,58.00
2018-02-22T02:55:53.708Z,58.10
2018-02-22T02:58:21.167Z,57.90
2018-02-22T03:00:48.609Z,57.70
2018-02-22T03:03:16.045Z,57.50
2018-02-22T03:05:43.558Z,58.00
2018-02-22T03:08:11.003Z,57.50
2018-02-22T03:10:38.439Z,57.30
2018-02-22T03:13:05.887Z,57.30
2018-02-22T03:15:33.347Z,57.10
2018-02-22T03:18:00.810Z,57.30
2018-02-22T03:20:28.279Z,57.40
2018-02-22T03:22:55.715Z,57.50
2018-02-22T03:25:23.160Z,57.60
2018-02-22T03:27:50.614Z,57.80
2018-02-22T03:30:18.071Z,57.80
2018-02-22T03:32:45.507Z,57.70
2018-02-22T03:35:12.958Z,57.60
2018-02-22T03:37:40.392Z,57.70
2018-02-22T03:40:07.847Z,57.90
2018-02-22T03:42:35.281Z,57.90
2018-02-22T03:45:03.502Z,58.20
2018-02-22T03:47:30.959Z,58.20
2018-02-22T03:49:58.387Z,58.20
2018-02-22T03:52:25.840Z,58.30
2018-02-22T03:54:54.043Z,58.60
2018-02-22T03:57:21.505Z,58.50
2018-02-22T03:59:48.951Z,58.80
2018-02-22T04:02:16.399Z,59.10
2018-02-22T04:04:43.867Z,59.20
2018-02-22T04:07:11.278Z,59.40
2018-02-22T04:09:38.720Z,59.50
2018-02-22T04:12:06.148Z,59.60
2018-02-22T04:14:33.599Z,59.80
2018-02-22T04:17:01.041Z,59.80
2018-02-22T04:19:28.491Z,60.00
2018-02-22T04:21:55.930Z,60.10
2018-02-22T04:24:23.375Z,60.20
2018-02-22T04:26:50.816Z,60.20
2018-02-22T04:29:18.259Z,60.40
2018-02-22T04:31:45.767Z,60.20
2018-02-22T04:34:13.203Z,60.20
2018-02-22T04:36:40.644Z,59.90
2018-02-22T04:39:08.084Z,59.80
2018-02-22T04:41:35.521Z,59.80
2018-02-22T04:44:02.964Z,59.70
2018-02-22T04:46:30.399Z,59.70
2018-02-22T04:48:58.599Z,59.30
2018-02-22T04:51:26.060Z,59.30
2018-02-22T04:53:53.496Z,59.00
2018-02-22T04:56:20.954Z,59.00
2018-02-22T04:58:48.414Z,58.90
2018-02-22T05:01:15.863Z,59.10
2018-02-22T05:03:43.325Z,59.20
2018-02-22T05:06:10.757Z,58.70
2018-02-22T05:08:38.230Z,58.30
2018-02-22T05:11:05.670Z,58.00
2018-02-22T05:13:33.113Z,57.90
2018-02-22T05:16:00.606Z,57.70
2018-02-22T05:18:28.832Z,57.30
2018-02-22T05:20:56.280Z,57.30
2018-02-22T05:23:23.733Z,57.20
2018-02-22T05:25:51.171Z,57.70
2018-02-22T05:28:18.630Z,58.00
2018-02-22T05:30:46.068Z,58.10
2018-02-22T05:33:13.553Z,58.20
2018-02-22T05:35:40.996Z,58.10
2018-02-22T05:38:08.443Z,58.10
2018-02-22T05:40:35.892Z,58.20
2018-02-22T05:43:03.359Z,58.00
2018-02-22T05:45:30.804Z,58.50
2018-02-22T05:47:58.242Z,58.70
2018-02-22T05:50:25.684Z,58.10
2018-02-22T05:52:53.132Z,57.70
2018-02-22T05:55:20.580Z,57.60
2018-02-22T05:57:48.010Z,57.50
2018-02-22T06:00:15.470Z,57.30
2018-02-22T06:02:42.924Z,57.10
2018-02-22T06:05:10.374Z,57.40
2018-02-22T06:07:37.811Z,57.20
2018-02-22T06:10:05.252Z,56.80
2018-02-22T06:12:32.737Z,56.80
2018-02-22T06:15:00.951Z,56.50
2018-02-22T06:17:28.378Z,56.40
2018-02-22T06:19:55.828Z,56.30
2018-02-22T06:22:23.271Z,56.40
2018-02-22T06:24:50.724Z,56.40
2018-02-22T06:27:18.188Z,57.00
2018-02-22T06:29:45.644Z,56.90
2018-02-22T06:32:13.095Z,56.60
2018-02-22T06:34:40.544Z,56.80
2018-02-22T06:37:07.975Z,56.60
2018-02-22T06:39:35.464Z,56.50
2018-02-22T06:42:02.892Z,56.60
2018-02-22T06:44:30.351Z,56.60
2018-02-22T06:46:57.798Z,56.90
2018-02-22T06:49:25.459Z,57.20
2018-02-22T06:51:52.918Z,57.20
2018-02-22T06:54:20.353Z,58.30
2018-02-22T06:56:47.791Z,58.60
2018-02-22T06:59:16.003Z,58.70
2018-02-22T07:01:43.443Z,58.70
2018-02-22T07:04:10.877Z,58.90
2018-02-22T07:06:38.328Z,59.20
2018-02-22T07:09:05.771Z,58.80
2018-02-22T07:11:33.205Z,59.00
2018-02-22T07:14:00.649Z,58.70
2018-02-22T07:16:28.074Z,58.20
2018-02-22T07:18:55.524Z,58.20
2018-02-22T07:21:23.720Z,58.30
2018-02-22T07:23:51.221Z,58.20
2018-02-22T07:26:18.654Z,57.50
2018-02-22T07:28:46.098Z,58.60
2018-02-22T07:31:13.560Z,58.00
2018-02-22T07:33:40.987Z,57.70
2018-02-22T07:36:08.494Z,57.60
2018-02-22T07:38:35.923Z,58.30
2018-02-22T07:41:04.372Z,57.60
2018-02-22T07:43:31.831Z,57.10
2018-02-22T07:45:59.277Z,57.00
2018-02-22T07:48:26.714Z,56.80
2018-02-22T07:50:54.191Z,56.60
2018-02-22T07:53:21.637Z,56.80
2018-02-22T07:55:49.103Z,56.50
2018-02-22T07:58:16.572Z,56.50
2018-02-22T08:00:44.054Z,57.10
2018-02-22T08:03:11.511Z,56.80
2018-02-22T08:05:39.002Z,56.70
2018-02-22T08:08:06.416Z,56.60
2018-02-22T08:10:34.696Z,58.30
2018-02-22T08:13:02.128Z,58.20
2018-02-22T08:15:29.604Z,57.30
2018-02-22T08:17:57.026Z,58.50
2018-02-22T08:20:24.527Z,58.10
2018-02-22T08:22:52.000Z,57.80
2018-02-22T08:25:19.441Z,57.20
2018-02-22T08:27:46.892Z,56.80
2018-02-22T08:30:14.340Z,56.70
2018-02-22T08:32:41.804Z,56.80
2018-02-22T08:35:09.268Z,56.90
2018-02-22T08:37:36.692Z,56.90
2018-02-22T08:40:04.265Z,57.00
2018-02-22T08:42:31.721Z,56.40
2018-02-22T08:44:59.184Z,56.20
2018-02-22T08:47:26.789Z,56.00
2018-02-22T08:49:54.207Z,56.40
2018-02-22T08:52:22.403Z,55.80
2018-02-22T08:54:49.855Z,55.80
2018-02-22T08:57:17.296Z,56.10
2018-02-22T08:59:44.736Z,57.10
2018-02-22T09:02:12.171Z,58.30
2018-02-22T09:04:39.639Z,57.90
2018-02-22T09:07:07.088Z,58.50
2018-02-22T09:09:34.524Z,58.70
2018-02-22T09:12:01.976Z,59.20
2018-02-22T09:14:29.443Z,59.80
2018-02-22T09:16:56.951Z,59.60
2018-02-22T09:19:24.406Z,60.40
2018-02-22T09:21:51.888Z,61.80
2018-02-22T09:24:19.353Z,60.90
2018-02-22T09:26:46.816Z,59.70
2018-02-22T09:29:14.292Z,59.20
2018-02-22T09:31:41.709Z,60.10
2018-02-22T09:34:09.476Z,59.00
2018-02-22T09:36:36.959Z,58.60
2018-02-22T09:39:04.396Z,59.90
2018-02-22T09:41:31.856Z,60.60
2018-02-22T09:43:59.301Z,60.20
2018-02-22T09:46:27.420Z,63.10
2018-02-22T09:48:54.884Z,61.70
2018-02-22T09:51:22.348Z,60.70
2018-02-22T10:00:33.096Z,62.70
2018-02-22T10:03:00.545Z,64.50
2018-02-22T10:05:28.002Z,66.40
2018-02-22T10:07:56.213Z,62.20
2018-02-22T10:10:23.678Z,62.10
2018-02-22T10:12:51.192Z,60.30
2018-02-22T10:15:18.655Z,62.00
2018-02-22T10:17:46.874Z,61.80
2018-02-22T10:20:14.338Z,61.80
2018-02-22T10:22:41.820Z,61.40
2018-02-22T10:25:09.296Z,59.40
2018-02-22T10:27:36.720Z,58.90
2018-02-22T10:30:04.201Z,58.10
2018-02-22T10:32:31.643Z,57.20
2018-02-22T10:34:59.143Z,57.40
2018-02-22T10:37:26.703Z,56.90
2018-02-22T10:39:54.919Z,56.00
2018-02-22T10:42:22.374Z,55.90
2018-02-22T10:44:49.850Z,54.90
2018-02-22T10:47:17.307Z,54.20
2018-02-22T10:49:44.743Z,53.00
2018-02-22T10:52:12.196Z,52.90
2018-02-22T10:54:40.411Z,52.60
2018-02-22T10:57:07.868Z,52.60
2018-02-22T10:59:36.102Z,53.60
2018-02-22T11:02:09.247Z,53.60
2018-02-22T11:04:37.573Z,52.60
2018-02-22T11:07:05.216Z,52.50
2018-02-22T11:09:32.665Z,52.80
2018-02-22T11:12:00.845Z,53.40
2018-02-22T11:14:28.726Z,53.70
2018-02-22T11:16:56.185Z,53.90
2018-02-22T11:19:24.447Z,53.10
2018-02-22T11:21:51.891Z,52.60
2018-02-22T11:24:19.723Z,52.10
2018-02-22T11:26:47.177Z,51.70
2018-02-22T11:29:14.614Z,52.60
2018-02-22T11:31:42.159Z,52.60
2018-02-22T11:34:09.616Z,52.80
2018-02-22T11:36:37.077Z,53.40
2018-02-22T11:39:04.525Z,53.90
2018-02-22T11:41:31.990Z,53.10
2018-02-22T11:43:59.452Z,51.60
2018-02-22T11:46:26.879Z,51.70
2018-02-22T11:48:54.340Z,51.30
2018-02-22T11:51:21.890Z,51.30
2018-02-22T11:53:49.322Z,52.70
2018-02-22T11:56:16.785Z,53.90
2018-02-22T11:58:44.226Z,60.50
2018-02-22T12:01:11.875Z,60.60
2018-02-22T12:03:39.533Z,60.40
2018-02-22T12:06:06.984Z,62.00
2018-02-22T12:08:34.449Z,62.60
2018-02-22T12:11:01.922Z,60.10
2018-02-22T12:13:29.357Z,59.20
2018-02-22T12:15:58.316Z,59.70
2018-02-22T12:18:25.799Z,60.20
2018-02-22T12:20:53.245Z,60.20
2018-02-22T12:23:20.703Z,62.20
2018-02-22T12:25:48.163Z,61.80
2018-02-22T12:28:15.661Z,60.10
2018-02-22T12:30:43.585Z,60.80
2018-02-22T12:33:11.024Z,60.80
2018-02-22T12:35:38.576Z,59.60
2018-02-22T12:38:06.033Z,61.30
2018-02-22T12:40:33.469Z,63.10
2018-02-22T12:43:00.928Z,63.90
2018-02-22T12:45:28.429Z,67.90
2018-02-22T12:47:55.885Z,68.40
2018-02-22T12:50:23.338Z,67.70
2018-02-22T12:52:50.787Z,66.10
2018-02-22T12:55:18.244Z,65.80
2018-02-22T12:57:45.689Z,68.50
2018-02-22T13:00:13.150Z,68.90
2018-02-22T13:02:40.588Z,68.60
2018-02-22T13:05:08.828Z,72.10
2018-02-22T13:07:36.322Z,72.10
2018-02-22T13:10:03.787Z,71.40
2018-02-22T13:12:31.170Z,70.50
2018-02-22T13:14:58.631Z,67.50
2018-02-22T13:17:26.068Z,71.60
2018-02-22T13:19:53.732Z,69.00
2018-02-22T13:22:21.168Z,69.30
2018-02-22T13:24:48.676Z,69.60
2018-02-22T13:27:16.912Z,67.00
2018-02-22T13:29:44.365Z,67.80
2018-02-22T13:32:12.583Z,67.30
2018-02-22T13:34:40.021Z,67.30
2018-02-22T13:37:19.296Z,65.50
2018-02-22T13:39:46.768Z,62.70
2018-02-22T13:42:14.336Z,62.10
2018-02-22T13:44:53.637Z,61.10
2018-02-22T13:47:21.080Z,61.00
2018-02-22T13:50:00.338Z,61.20
2018-02-22T13:52:27.828Z,60.20
2018-02-22T13:54:55.231Z,59.50
2018-02-22T13:57:22.688Z,62.40
2018-02-22T13:59:50.133Z,62.40
2018-02-22T14:02:32.504Z,66.30
2018-02-22T14:04:59.972Z,63.60
2018-02-22T14:07:27.412Z,64.90
2018-02-22T14:09:54.844Z,64.30
2018-02-22T14:12:22.287Z,65.00
2018-02-22T14:14:49.731Z,65.20
2018-02-22T14:17:17.697Z,66.00
2018-02-22T14:19:45.111Z,66.70
2018-02-22T14:22:13.316Z,67.20
2018-02-22T14:24:40.747Z,67.00
2018-02-22T14:27:08.196Z,66.60
2018-02-22T14:29:36.446Z,65.60
2018-02-22T14:32:03.933Z,65.50
2018-02-22T14:34:35.051Z,63.40
2018-02-22T14:37:03.295Z,62.20
2018-02-22T14:39:30.737Z,62.00
2018-02-22T14:41:58.604Z,61.90
2018-02-22T14:44:26.245Z,62.30
2018-02-22T14:46:55.341Z,65.10
2018-02-22T14:49:23.567Z,71.50
2018-02-22T14:51:51.026Z,71.60
2018-02-22T14:54:18.780Z,71.00
2018-02-22T14:56:46.215Z,68.10
2018-02-22T14:59:13.664Z,72.70
2018-02-22T15:01:41.129Z,73.70
2018-02-22T15:04:08.566Z,73.70
2018-02-22T15:06:36.127Z,75.60
2018-02-22T15:09:03.852Z,71.50
2018-02-22T15:11:31.276Z,77.70
2018-02-22T15:13:58.733Z,80.40
2018-02-22T15:16:26.196Z,78.30
2018-02-22T15:18:53.648Z,78.90
2018-02-22T15:21:21.093Z,76.10
2018-02-22T15:23:48.549Z,77.10
2018-02-22T15:26:16.023Z,78.30
2018-02-22T15:28:44.206Z,76.70
2018-02-22T15:31:11.640Z,76.60
2018-02-22T15:33:39.084Z,76.00
2018-02-22T15:36:06.542Z,73.20
2018-02-22T15:38:33.988Z,71.30
2018-02-22T15:41:01.423Z,71.00
2018-02-22T15:43:28.901Z,70.30
2018-02-22T15:45:56.353Z,68.20
2018-02-22T15:48:23.795Z,70.20
2018-02-22T15:50:51.257Z,69.40
2018-02-22T15:53:18.718Z,68.20
2018-02-22T15:55:46.154Z,68.90
2018-02-22T15:58:13.624Z,69.20
2018-02-22T16:00:41.076Z,69.90
2018-02-22T16:03:08.507Z,70.60
2018-02-22T16:05:35.965Z,70.10
2018-02-22T16:08:03.398Z,69.20
2018-02-22T16:10:30.851Z,68.50
2018-02-22T16:12:58.385Z,68.80
2018-02-22T16:15:26.606Z,70.50
2018-02-22T16:17:54.036Z,70.30
2018-02-22T16:20:21.515Z,71.10
2018-02-22T16:22:48.956Z,71.20
2018-02-22T16:25:16.407Z,71.00
2018-02-22T16:27:43.852Z,70.70
2018-02-22T16:30:11.336Z,71.20
2018-02-22T16:32:38.769Z,71.20
2018-02-22T16:35:06.230Z,68.80
2018-02-22T16:37:33.656Z,70.70
2018-02-22T16:40:01.147Z,72.40
2018-02-22T16:42:28.532Z,74.40
2018-02-22T16:44:56.018Z,75.20
2018-02-22T16:47:23.476Z,76.70
2018-02-22T16:49:50.894Z,78.00
2018-02-22T16:52:18.354Z,77.90
2018-02-22T16:54:45.805Z,79.10
2018-02-22T16:57:13.309Z,79.80
2018-02-22T16:59:40.743Z,80.00
2018-02-22T17:02:08.203Z,80.50
2018-02-22T17:04:35.654Z,79.60
2018-02-22T17:07:03.108Z,80.80
2018-02-22T17:09:30.553Z,82.80
2018-02-22T17:11:58.035Z,81.80
2018-02-22T17:14:25.500Z,80.50
2018-02-22T17:16:52.966Z,80.40
2018-02-22T17:19:20.588Z,78.90
2018-02-22T17:21:48.064Z,78.80
2018-02-22T17:24:15.528Z,78.70
2018-02-22T17:26:48.728Z,79.70
2018-02-22T17:29:21.949Z,80.10
2018-02-22T17:31:55.116Z,80.00
2018-02-22T17:34:22.550Z,79.50
2018-02-22T17:36:51.910Z,79.30
2018-02-22T17:39:24.923Z,78.90
2018-02-22T17:41:52.480Z,76.90
2018-02-22T17:44:19.884Z,76.10
2018-02-22T17:46:47.336Z,75.40
2018-02-22T17:49:14.814Z,73.80
2018-02-22T17:51:42.268Z,74.00
2018-02-22T17:54:09.700Z,74.10
2018-02-22T17:56:37.171Z,72.10
2018-02-22T17:59:04.603Z,71.30
2018-02-22T18:01:32.056Z,72.60
2018-02-22T18:03:59.503Z,70.60
2018-02-22T18:06:26.973Z,72.20
2018-02-22T18:08:55.182Z,71.90
2018-02-22T18:11:23.403Z,71.30
2018-02-22T18:13:50.847Z,71.10
2018-02-22T18:16:18.303Z,70.40
2018-02-22T18:18:45.739Z,70.60
2018-02-22T18:21:13.960Z,69.70
2018-02-22T18:23:41.573Z,69.60
2018-02-22T18:26:09.031Z,69.00
2018-02-22T18:28:36.495Z,69.10
2018-02-22T18:31:03.934Z,68.40
2018-02-22T18:33:31.391Z,68.40
2018-02-22T18:35:59.597Z,67.60
2018-02-22T18:38:27.092Z,67.50
2018-02-22T18:40:59.277Z,67.00
2018-02-22T18:43:32.327Z,67.60
2018-02-22T18:45:59.785Z,67.80
2018-02-22T18:48:27.268Z,67.70
2018-02-22T18:50:54.704Z,67.70
2018-02-22T18:53:22.164Z,67.40
2018-02-22T18:55:49.628Z,67.60
2018-02-22T18:58:17.832Z,67.20
2018-02-22T19:00:45.287Z,67.00
2018-02-22T19:03:12.716Z,66.20
2018-02-22T19:05:40.181Z,67.00
2018-02-22T19:08:08.709Z,66.90
2018-02-22T19:10:36.151Z,67.30
2018-02-22T19:13:03.613Z,66.30
2018-02-22T19:15:31.061Z,66.30
2018-02-22T19:17:58.507Z,66.70
2018-02-22T19:20:25.956Z,66.20
2018-02-22T19:22:53.412Z,65.60
2018-02-22T19:25:20.868Z,64.40
2018-02-22T19:27:48.304Z,63.90
2018-02-22T19:30:15.759Z,65.20
2018-02-22T19:32:43.196Z,65.00
2018-02-22T19:35:10.668Z,64.60
2018-02-22T19:37:38.094Z,65.00
2018-02-22T19:40:06.318Z,64.10
2018-02-22T19:42:33.764Z,64.10
2018-02-22T19:45:01.217Z,64.40
2018-02-22T19:47:28.667Z,64.50
2018-02-22T19:49:56.095Z,64.20
2018-02-22T19:52:25.760Z,64.30
2018-02-22T19:54:53.220Z,64.20
2018-02-22T19:57:20.656Z,64.00
2018-02-22T19:59:48.114Z,63.70
2018-02-22T20:02:15.552Z,63.40
2018-02-22T20:04:43.007Z,64.00
2018-02-22T20:07:10.483Z,63.70
2018-02-22T20:09:37.945Z,63.20
2018-02-22T20:12:05.475Z,63.20
2018-02-22T20:14:33.127Z,63.60
2018-02-22T20:17:01.411Z,64.30
2018-02-22T20:19:28.890Z,64.30
2018-02-22T20:21:56.332Z,63.80
2018-02-22T20:24:23.786Z,63.30
2018-02-22T20:26:51.224Z,62.90
2018-02-22T20:29:19.442Z,62.60
2018-02-22T20:31:46.879Z,62.60
2018-02-22T20:34:14.340Z,63.10
2018-02-22T20:36:41.811Z,63.10
2018-02-22T20:39:09.243Z,62.50
2018-02-22T20:41:36.696Z,61.60
2018-02-22T20:44:04.190Z,62.00
2018-02-22T20:46:31.639Z,61.50
2018-02-22T20:48:59.092Z,61.30
2018-02-22T20:51:43.327Z,61.60
2018-02-22T20:54:10.771Z,61.20
2018-02-22T20:56:39.007Z,60.50
2018-02-22T20:59:06.470Z,60.40
2018-02-22T21:01:33.900Z,60.80
2018-02-22T21:04:01.351Z,61.10
2018-02-22T21:06:28.812Z,61.00
2018-02-22T21:08:56.276Z,60.20
2018-02-22T21:11:23.753Z,59.50
2018-02-22T21:13:51.208Z,60.00
2018-02-22T21:16:18.653Z,59.90
2018-02-22T21:18:46.110Z,60.00
2018-02-22T21:21:13.552Z,60.20
2018-02-22T21:23:40.996Z,60.00
2018-02-22T21:26:08.455Z,60.30
2018-02-22T21:28:35.887Z,59.80
2018-02-22T21:31:03.340Z,59.70
2018-02-22T21:33:30.768Z,59.40
2018-02-22T21:35:58.226Z,59.90
2018-02-22T21:38:25.655Z,60.30
2018-02-22T21:40:53.181Z,59.90
2018-02-22T21:43:20.627Z,59.90
2018-02-22T21:45:48.080Z,59.30
2018-02-22T21:48:16.288Z,59.60
2018-02-22T21:50:43.756Z,59.50
2018-02-22T21:53:11.188Z,59.60
2018-02-22T21:55:38.627Z,59.50
2018-02-22T21:58:06.088Z,59.00
2018-02-22T22:00:33.535Z,59.40
2018-02-22T22:03:01.005Z,59.50
2018-02-22T22:05:28.464Z,59.20
2018-02-22T22:07:55.905Z,59.20
2018-02-22T22:10:23.352Z,59.20
2018-02-22T22:12:50.810Z,59.40
2018-02-22T22:15:18.277Z,59.40
2018-02-22T22:17:45.755Z,59.40
2018-02-22T22:20:13.199Z,59.40
2018-02-22T22:22:40.637Z,59.60
2018-02-22T22:25:08.096Z,60.10
2018-02-22T22:27:35.555Z,59.70
2018-02-22T22:30:03.023Z,59.70
2018-02-22T22:32:30.466Z,59.90
2018-02-22T22:34:57.923Z,59.40
2018-02-22T22:37:25.382Z,60.00
2018-02-22T22:39:52.837Z,60.00
2018-02-22T22:42:20.272Z,60.40
2018-02-22T22:44:47.715Z,60.80
2018-02-22T22:47:15.158Z,60.20
2018-02-22T22:49:42.609Z,60.40
2018-02-22T22:52:10.056Z,60.90
2018-02-22T22:54:37.509Z,61.20
2018-02-22T22:57:04.952Z,61.40
2018-02-22T22:59:32.409Z,61.00
2018-02-22T23:01:59.838Z,61.20
2018-02-22T23:04:27.284Z,61.00
2018-02-22T23:06:54.741Z,60.90
2018-02-22T23:09:22.257Z,60.90
2018-02-22T23:11:49.723Z,61.10
2018-02-22T23:14:17.154Z,60.70
2018-02-22T23:16:44.593Z,60.00
2018-02-22T23:19:12.044Z,60.50
2018-02-22T23:21:39.487Z,59.80
2018-02-22T23:24:06.947Z,60.30
2018-02-22T23:26:34.382Z,60.60
2018-02-22T23:29:01.860Z,60.50
2018-02-22T23:31:29.377Z,60.20
2018-02-22T23:33:56.824Z,60.10
2018-02-22T23:36:24.265Z,59.90
2018-02-22T23:38:53.406Z,59.60
2018-02-22T23:41:26.567Z,59.50
2018-02-22T23:43:53.984Z,59.50
2018-02-22T23:46:21.439Z,59.30
2018-02-22T23:48:48.890Z,59.60
2018-02-22T23:51:16.332Z,59.40
2018-02-22T23:53:43.866Z,59.40
2018-02-22T23:56:11.304Z,59.70
2018-02-22T23:58:38.754Z,59.60
